sensor_id;sensor_type;location;lat;lon;timestamp;P1;durP1;ratioP1;P2;durP2;ratioP2
75280;SDS011;63874;47.230;39.620;2023-01-01T00:01:46;6.30;;;1.38;;
75280;SDS011;63874;47.230;39.620;2023-01-01T00:04:30;10.13;;;2.58;;
75280;SDS011;63874;47.230;39.620;2023-01-01T00:06:56;20.92;;;2.90;;
75280;SDS011;63874;47.230;39.620;2023-01-01T00:12:06;16.15;;;2.40;;
75280;SDS011;63874;47.230;39.620;2023-01-01T00:16:58;21.52;;;3.35;;
75280;SDS011;63874;47.230;39.620;2023-01-01T00:19:24;15.02;;;2.70;;
75280;SDS011;63874;47.230;39.620;2023-01-01T00:24:15;4.30;;;0.98;;
75280;SDS011;63874;47.230;39.620;2023-01-01T00:26:41;15.48;;;2.20;;
75280;SDS011;63874;47.230;39.620;2023-01-01T00:29:07;7.00;;;1.23;;
75280;SDS011;63874;47.230;39.620;2023-01-01T00:31:33;12.73;;;1.90;;
75280;SDS011;63874;47.230;39.620;2023-01-01T00:36:43;4.22;;;1.08;;
75280;SDS011;63874;47.230;39.620;2023-01-01T00:41:35;6.57;;;1.15;;
75280;SDS011;63874;47.230;39.620;2023-01-01T00:44:00;13.10;;;2.65;;
75280;SDS011;63874;47.230;39.620;2023-01-01T00:48:52;24.98;;;4.72;;
75280;SDS011;63874;47.230;39.620;2023-01-01T00:53:43;12.27;;;2.13;;
75280;SDS011;63874;47.230;39.620;2023-01-01T00:56:28;11.60;;;1.45;;
75280;SDS011;63874;47.230;39.620;2023-01-01T01:01:19;5.82;;;1.90;;
75280;SDS011;63874;47.230;39.620;2023-01-01T01:06:11;28.63;;;4.15;;
75280;SDS011;63874;47.230;39.620;2023-01-01T01:08:40;17.42;;;1.83;;
75280;SDS011;63874;47.230;39.620;2023-01-01T01:13:35;21.42;;;3.08;;
75280;SDS011;63874;47.230;39.620;2023-01-01T01:16:11;27.40;;;5.50;;
75280;SDS011;63874;47.230;39.620;2023-01-01T01:18:38;24.10;;;3.78;;
75280;SDS011;63874;47.230;39.620;2023-01-01T01:21:04;13.18;;;1.85;;
75280;SDS011;63874;47.230;39.620;2023-01-01T01:26:05;24.60;;;3.90;;
75280;SDS011;63874;47.230;39.620;2023-01-01T01:31:07;13.25;;;2.35;;
75280;SDS011;63874;47.230;39.620;2023-01-01T01:33:33;25.92;;;4.57;;
75280;SDS011;63874;47.230;39.620;2023-01-01T01:36:18;17.55;;;2.58;;
75280;SDS011;63874;47.230;39.620;2023-01-01T01:38:44;23.73;;;3.50;;
75280;SDS011;63874;47.230;39.620;2023-01-01T01:41:11;21.33;;;3.50;;
75280;SDS011;63874;47.230;39.620;2023-01-01T01:48:40;19.20;;;3.30;;
75280;SDS011;63874;47.230;39.620;2023-01-01T01:51:09;28.75;;;3.85;;
75280;SDS011;63874;47.230;39.620;2023-01-01T01:53:38;10.30;;;2.38;;
75280;SDS011;63874;47.230;39.620;2023-01-01T01:56:09;27.80;;;4.28;;
75280;SDS011;63874;47.230;39.620;2023-01-01T01:58:39;23.02;;;3.38;;
75280;SDS011;63874;47.230;39.620;2023-01-01T02:06:18;27.45;;;4.45;;
75280;SDS011;63874;47.230;39.620;2023-01-01T02:08:44;7.57;;;1.10;;
75280;SDS011;63874;47.230;39.620;2023-01-01T02:11:10;13.30;;;2.00;;
75280;SDS011;63874;47.230;39.620;2023-01-01T02:13:37;13.48;;;1.95;;
75280;SDS011;63874;47.230;39.620;2023-01-01T02:18:33;14.63;;;1.73;;
75280;SDS011;63874;47.230;39.620;2023-01-01T02:21:06;19.55;;;2.30;;
75280;SDS011;63874;47.230;39.620;2023-01-01T02:29:18;21.67;;;3.17;;
75280;SDS011;63874;47.230;39.620;2023-01-01T02:32:23;32.67;;;4.53;;
75280;SDS011;63874;47.230;39.620;2023-01-01T02:35:08;11.65;;;3.97;;
75280;SDS011;63874;47.230;39.620;2023-01-01T02:38:19;20.45;;;3.83;;
75280;SDS011;63874;47.230;39.620;2023-01-01T02:41:13;10.52;;;2.83;;
75280;SDS011;63874;47.230;39.620;2023-01-01T02:43:47;22.58;;;3.00;;
75280;SDS011;63874;47.230;39.620;2023-01-01T02:48:43;16.55;;;2.60;;
75280;SDS011;63874;47.230;39.620;2023-01-01T02:56:36;23.77;;;5.20;;
75280;SDS011;63874;47.230;39.620;2023-01-01T02:59:20;26.52;;;5.55;;
75280;SDS011;63874;47.230;39.620;2023-01-01T03:02:23;14.20;;;2.38;;
75280;SDS011;63874;47.230;39.620;2023-01-01T03:11:18;15.27;;;2.13;;
75280;SDS011;63874;47.230;39.620;2023-01-01T03:16:35;25.90;;;3.35;;
75280;SDS011;63874;47.230;39.620;2023-01-01T03:19:33;27.08;;;3.45;;
75280;SDS011;63874;47.230;39.620;2023-01-01T03:22:09;12.93;;;2.40;;
75280;SDS011;63874;47.230;39.620;2023-01-01T03:25:00;25.70;;;4.78;;
75280;SDS011;63874;47.230;39.620;2023-01-01T03:27:51;20.23;;;3.10;;
75280;SDS011;63874;47.230;39.620;2023-01-01T03:30:21;35.83;;;5.78;;
75280;SDS011;63874;47.230;39.620;2023-01-01T03:33:54;23.42;;;3.65;;
75280;SDS011;63874;47.230;39.620;2023-01-01T03:36:08;15.45;;;2.95;;
75280;SDS011;63874;47.230;39.620;2023-01-01T03:38:51;18.88;;;3.20;;
75280;SDS011;63874;47.230;39.620;2023-01-01T03:44:45;17.10;;;2.45;;
75280;SDS011;63874;47.230;39.620;2023-01-01T03:46:48;17.80;;;3.05;;
75280;SDS011;63874;47.230;39.620;2023-01-01T03:49:14;10.68;;;2.67;;
75280;SDS011;63874;47.230;39.620;2023-01-01T04:00:04;21.10;;;4.25;;
75280;SDS011;63874;47.230;39.620;2023-01-01T04:05:10;20.88;;;2.15;;
75280;SDS011;63874;47.230;39.620;2023-01-01T04:07:38;25.08;;;2.80;;
75280;SDS011;63874;47.230;39.620;2023-01-01T04:10:04;25.40;;;4.55;;
75280;SDS011;63874;47.230;39.620;2023-01-01T04:12:51;20.73;;;3.65;;
75280;SDS011;63874;47.230;39.620;2023-01-01T04:15:39;15.73;;;2.70;;
75280;SDS011;63874;47.230;39.620;2023-01-01T04:20:31;24.50;;;3.83;;
75280;SDS011;63874;47.230;39.620;2023-01-01T04:22:58;21.27;;;3.90;;
75280;SDS011;63874;47.230;39.620;2023-01-01T04:25:43;9.90;;;1.88;;
75280;SDS011;63874;47.230;39.620;2023-01-01T04:30:34;10.93;;;1.98;;
75280;SDS011;63874;47.230;39.620;2023-01-01T04:35:26;21.35;;;4.18;;
75280;SDS011;63874;47.230;39.620;2023-01-01T04:40:17;18.60;;;2.70;;
75280;SDS011;63874;47.230;39.620;2023-01-01T04:45:09;18.85;;;2.65;;
75280;SDS011;63874;47.230;39.620;2023-01-01T04:47:39;41.25;;;4.50;;
75280;SDS011;63874;47.230;39.620;2023-01-01T04:50:05;25.75;;;2.65;;
75280;SDS011;63874;47.230;39.620;2023-01-01T04:52:31;27.65;;;5.68;;
75280;SDS011;63874;47.230;39.620;2023-01-01T04:57:23;15.20;;;2.25;;
75280;SDS011;63874;47.230;39.620;2023-01-01T05:00:08;11.80;;;2.00;;
75280;SDS011;63874;47.230;39.620;2023-01-01T05:02:34;14.63;;;2.70;;
75280;SDS011;63874;47.230;39.620;2023-01-01T05:05:18;10.23;;;1.95;;
75280;SDS011;63874;47.230;39.620;2023-01-01T05:07:44;9.63;;;1.70;;
75280;SDS011;63874;47.230;39.620;2023-01-01T05:12:36;9.63;;;1.60;;
75280;SDS011;63874;47.230;39.620;2023-01-01T05:17:28;10.57;;;1.25;;
75280;SDS011;63874;47.230;39.620;2023-01-01T05:20:13;9.10;;;1.88;;
75280;SDS011;63874;47.230;39.620;2023-01-01T05:22:40;7.22;;;1.17;;
75280;SDS011;63874;47.230;39.620;2023-01-01T05:27:31;9.00;;;3.70;;
75280;SDS011;63874;47.230;39.620;2023-01-01T05:32:23;11.15;;;2.08;;
75280;SDS011;63874;47.230;39.620;2023-01-01T05:37:15;11.52;;;1.65;;
75280;SDS011;63874;47.230;39.620;2023-01-01T05:42:07;9.20;;;1.00;;
75280;SDS011;63874;47.230;39.620;2023-01-01T05:46:58;6.70;;;1.88;;
75280;SDS011;63874;47.230;39.620;2023-01-01T05:51:50;17.20;;;2.00;;
75280;SDS011;63874;47.230;39.620;2023-01-01T05:54:34;9.15;;;2.45;;
75280;SDS011;63874;47.230;39.620;2023-01-01T05:57:19;15.93;;;3.17;;
75280;SDS011;63874;47.230;39.620;2023-01-01T05:59:45;21.83;;;3.13;;
75280;SDS011;63874;47.230;39.620;2023-01-01T06:04:54;7.47;;;1.95;;
75280;SDS011;63874;47.230;39.620;2023-01-01T06:07:39;14.45;;;3.60;;
75280;SDS011;63874;47.230;39.620;2023-01-01T06:12:31;11.07;;;1.92;;
75280;SDS011;63874;47.230;39.620;2023-01-01T06:17:22;6.57;;;1.98;;
75280;SDS011;63874;47.230;39.620;2023-01-01T06:22:14;10.15;;;1.98;;
75280;SDS011;63874;47.230;39.620;2023-01-01T06:24:40;8.38;;;2.15;;
75280;SDS011;63874;47.230;39.620;2023-01-01T06:29:31;11.95;;;1.98;;
75280;SDS011;63874;47.230;39.620;2023-01-01T06:34:41;6.65;;;1.20;;
75280;SDS011;63874;47.230;39.620;2023-01-01T06:37:07;2.85;;;0.93;;
75280;SDS011;63874;47.230;39.620;2023-01-01T06:41:59;4.13;;;0.82;;
75280;SDS011;63874;47.230;39.620;2023-01-01T06:49:34;3.88;;;0.85;;
75280;SDS011;63874;47.230;39.620;2023-01-01T06:54:26;4.68;;;1.02;;
75280;SDS011;63874;47.230;39.620;2023-01-01T06:56:52;6.95;;;1.45;;
75280;SDS011;63874;47.230;39.620;2023-01-01T07:01:44;5.88;;;1.27;;
75280;SDS011;63874;47.230;39.620;2023-01-01T07:04:11;7.95;;;1.17;;
75280;SDS011;63874;47.230;39.620;2023-01-01T07:06:38;9.48;;;1.38;;
75280;SDS011;63874;47.230;39.620;2023-01-01T07:11:30;9.15;;;1.98;;
75280;SDS011;63874;47.230;39.620;2023-01-01T07:16:59;5.63;;;0.75;;
75280;SDS011;63874;47.230;39.620;2023-01-01T07:21:51;4.65;;;1.05;;
75280;SDS011;63874;47.230;39.620;2023-01-01T07:24:18;10.68;;;2.10;;
75280;SDS011;63874;47.230;39.620;2023-01-01T07:26:45;14.82;;;2.35;;
75280;SDS011;63874;47.230;39.620;2023-01-01T07:29:11;6.88;;;1.65;;
75280;SDS011;63874;47.230;39.620;2023-01-01T07:31:38;2.95;;;0.75;;
75280;SDS011;63874;47.230;39.620;2023-01-01T07:34:06;6.07;;;1.10;;
75280;SDS011;63874;47.230;39.620;2023-01-01T07:36:36;7.63;;;1.85;;
75280;SDS011;63874;47.230;39.620;2023-01-01T07:41:28;2.83;;;1.10;;
75280;SDS011;63874;47.230;39.620;2023-01-01T07:43:54;2.30;;;1.45;;
75280;SDS011;63874;47.230;39.620;2023-01-01T07:48:46;1.35;;;0.75;;
75280;SDS011;63874;47.230;39.620;2023-01-01T07:53:37;1.98;;;0.82;;
75280;SDS011;63874;47.230;39.620;2023-01-01T07:58:48;5.05;;;1.33;;
75280;SDS011;63874;47.230;39.620;2023-01-01T08:03:39;3.28;;;1.10;;
75280;SDS011;63874;47.230;39.620;2023-01-01T08:08:37;3.22;;;0.82;;
75280;SDS011;63874;47.230;39.620;2023-01-01T08:11:22;3.05;;;0.77;;
75280;SDS011;63874;47.230;39.620;2023-01-01T08:16:13;5.65;;;1.10;;
75280;SDS011;63874;47.230;39.620;2023-01-01T08:18:57;4.05;;;0.95;;
75280;SDS011;63874;47.230;39.620;2023-01-01T08:23:49;3.97;;;1.17;;
75280;SDS011;63874;47.230;39.620;2023-01-01T08:26:34;8.02;;;1.25;;
75280;SDS011;63874;47.230;39.620;2023-01-01T08:29:19;3.25;;;1.00;;
75280;SDS011;63874;47.230;39.620;2023-01-01T08:31:46;5.28;;;1.48;;
75280;SDS011;63874;47.230;39.620;2023-01-01T08:34:12;6.32;;;0.98;;
75280;SDS011;63874;47.230;39.620;2023-01-01T08:36:56;5.75;;;1.20;;
75280;SDS011;63874;47.230;39.620;2023-01-01T08:41:47;12.10;;;2.17;;
75280;SDS011;63874;47.230;39.620;2023-01-01T08:44:31;26.63;;;3.97;;
75280;SDS011;63874;47.230;39.620;2023-01-01T08:49:42;21.67;;;3.15;;
75280;SDS011;63874;47.230;39.620;2023-01-01T08:54:33;5.32;;;0.93;;
75280;SDS011;63874;47.230;39.620;2023-01-01T08:56:59;14.27;;;3.10;;
75280;SDS011;63874;47.230;39.620;2023-01-01T08:59:25;27.83;;;4.07;;
75280;SDS011;63874;47.230;39.620;2023-01-01T09:01:51;10.60;;;1.48;;
75280;SDS011;63874;47.230;39.620;2023-01-01T09:04:17;10.32;;;3.35;;
75280;SDS011;63874;47.230;39.620;2023-01-01T09:06:43;21.05;;;4.15;;
75280;SDS011;63874;47.230;39.620;2023-01-01T09:09:09;24.98;;;3.53;;
75280;SDS011;63874;47.230;39.620;2023-01-01T09:14:00;12.80;;;3.03;;
75280;SDS011;63874;47.230;39.620;2023-01-01T09:16:45;30.50;;;4.22;;
75280;SDS011;63874;47.230;39.620;2023-01-01T09:19:29;8.80;;;1.23;;
75280;SDS011;63874;47.230;39.620;2023-01-01T09:24:21;13.98;;;2.00;;
75280;SDS011;63874;47.230;39.620;2023-01-01T09:26:47;18.05;;;2.88;;
75280;SDS011;63874;47.230;39.620;2023-01-01T09:31:43;14.95;;;2.92;;
75280;SDS011;63874;47.230;39.620;2023-01-01T09:34:09;16.17;;;2.55;;
75280;SDS011;63874;47.230;39.620;2023-01-01T09:36:54;7.10;;;1.50;;
75280;SDS011;63874;47.230;39.620;2023-01-01T09:47:40;12.73;;;2.13;;
75280;SDS011;63874;47.230;39.620;2023-01-01T09:50:14;38.10;;;5.38;;
75280;SDS011;63874;47.230;39.620;2023-01-01T09:53:14;30.65;;;5.55;;
75280;SDS011;63874;47.230;39.620;2023-01-01T09:56:03;12.75;;;2.10;;
75280;SDS011;63874;47.230;39.620;2023-01-01T09:58:33;20.48;;;5.18;;
75280;SDS011;63874;47.230;39.620;2023-01-01T10:07:55;32.78;;;6.78;;
75280;SDS011;63874;47.230;39.620;2023-01-01T10:12:35;28.05;;;4.57;;
75280;SDS011;63874;47.230;39.620;2023-01-01T10:15:25;19.40;;;3.72;;
75280;SDS011;63874;47.230;39.620;2023-01-01T10:17:59;31.08;;;5.35;;
75280;SDS011;63874;47.230;39.620;2023-01-01T10:20:37;21.17;;;4.45;;
75280;SDS011;63874;47.230;39.620;2023-01-01T10:23:11;20.67;;;4.78;;
75280;SDS011;63874;47.230;39.620;2023-01-01T10:25:50;30.73;;;7.05;;
75280;SDS011;63874;47.230;39.620;2023-01-01T10:28:19;20.52;;;6.38;;
75280;SDS011;63874;47.230;39.620;2023-01-01T10:30:52;18.20;;;4.88;;
75280;SDS011;63874;47.230;39.620;2023-01-01T10:33:34;13.50;;;3.90;;
75280;SDS011;63874;47.230;39.620;2023-01-01T10:36:00;28.35;;;7.30;;
75280;SDS011;63874;47.230;39.620;2023-01-01T10:38:26;15.93;;;6.25;;
75280;SDS011;63874;47.230;39.620;2023-01-01T10:41:11;14.02;;;4.75;;
75280;SDS011;63874;47.230;39.620;2023-01-01T10:43:37;15.77;;;5.28;;
75280;SDS011;63874;47.230;39.620;2023-01-01T10:46:04;8.35;;;4.75;;
75280;SDS011;63874;47.230;39.620;2023-01-01T10:49:03;8.35;;;4.78;;
75280;SDS011;63874;47.230;39.620;2023-01-01T10:51:31;10.68;;;5.18;;
75280;SDS011;63874;47.230;39.620;2023-01-01T10:53:57;14.05;;;4.28;;
75280;SDS011;63874;47.230;39.620;2023-01-01T10:56:24;7.90;;;4.07;;
75280;SDS011;63874;47.230;39.620;2023-01-01T10:58:54;8.25;;;3.53;;
75280;SDS011;63874;47.230;39.620;2023-01-01T11:01:26;6.50;;;3.15;;
75280;SDS011;63874;47.230;39.620;2023-01-01T11:06:21;11.13;;;3.60;;
75280;SDS011;63874;47.230;39.620;2023-01-01T11:08:49;16.63;;;4.75;;
75280;SDS011;63874;47.230;39.620;2023-01-01T11:11:27;15.65;;;3.83;;
75280;SDS011;63874;47.230;39.620;2023-01-01T11:14:36;11.10;;;3.38;;
75280;SDS011;63874;47.230;39.620;2023-01-01T11:17:05;7.45;;;2.35;;
75280;SDS011;63874;47.230;39.620;2023-01-01T11:19:33;4.35;;;2.42;;
75280;SDS011;63874;47.230;39.620;2023-01-01T11:25:19;4.05;;;1.45;;
75280;SDS011;63874;47.230;39.620;2023-01-01T11:27:51;3.83;;;1.17;;
75280;SDS011;63874;47.230;39.620;2023-01-01T11:30:38;2.92;;;1.05;;
75280;SDS011;63874;47.230;39.620;2023-01-01T11:35:57;4.60;;;2.08;;
75280;SDS011;63874;47.230;39.620;2023-01-01T11:38:23;5.50;;;2.08;;
75280;SDS011;63874;47.230;39.620;2023-01-01T11:40:51;2.33;;;0.75;;
75280;SDS011;63874;47.230;39.620;2023-01-01T11:43:25;12.68;;;3.05;;
75280;SDS011;63874;47.230;39.620;2023-01-01T11:45:53;1.75;;;0.77;;
75280;SDS011;63874;47.230;39.620;2023-01-01T11:48:31;10.23;;;2.50;;
75280;SDS011;63874;47.230;39.620;2023-01-01T11:51:03;7.63;;;1.85;;
75280;SDS011;63874;47.230;39.620;2023-01-01T11:53:39;10.63;;;2.83;;
75280;SDS011;63874;47.230;39.620;2023-01-01T11:56:24;8.90;;;2.90;;
75280;SDS011;63874;47.230;39.620;2023-01-01T12:01:44;2.58;;;1.45;;
75280;SDS011;63874;47.230;39.620;2023-01-01T12:04:30;7.15;;;2.22;;
75280;SDS011;63874;47.230;39.620;2023-01-01T12:07:30;9.15;;;2.70;;
75280;SDS011;63874;47.230;39.620;2023-01-01T12:10:04;9.48;;;2.88;;
75280;SDS011;63874;47.230;39.620;2023-01-01T12:12:37;8.48;;;2.47;;
75280;SDS011;63874;47.230;39.620;2023-01-01T12:23:40;3.50;;;1.38;;
75280;SDS011;63874;47.230;39.620;2023-01-01T12:34:59;2.10;;;0.93;;
75280;SDS011;63874;47.230;39.620;2023-01-01T12:38:06;2.65;;;1.20;;
75280;SDS011;63874;47.230;39.620;2023-01-01T12:46:28;2.38;;;1.33;;
75280;SDS011;63874;47.230;39.620;2023-01-01T12:49:12;2.13;;;0.95;;
75280;SDS011;63874;47.230;39.620;2023-01-01T12:52:34;2.35;;;1.35;;
75280;SDS011;63874;47.230;39.620;2023-01-01T12:58:09;2.35;;;0.85;;
75280;SDS011;63874;47.230;39.620;2023-01-01T13:00:36;2.45;;;1.23;;
75280;SDS011;63874;47.230;39.620;2023-01-01T13:03:09;2.00;;;1.10;;
75280;SDS011;63874;47.230;39.620;2023-01-01T13:05:44;1.70;;;0.88;;
75280;SDS011;63874;47.230;39.620;2023-01-01T13:08:32;2.38;;;1.25;;
75280;SDS011;63874;47.230;39.620;2023-01-01T13:11:01;2.70;;;1.25;;
75280;SDS011;63874;47.230;39.620;2023-01-01T13:13:28;2.72;;;1.67;;
75280;SDS011;63874;47.230;39.620;2023-01-01T13:15:55;2.47;;;1.38;;
75280;SDS011;63874;47.230;39.620;2023-01-01T13:18:31;2.67;;;1.67;;
75280;SDS011;63874;47.230;39.620;2023-01-01T13:21:06;2.35;;;1.25;;
75280;SDS011;63874;47.230;39.620;2023-01-01T13:23:47;2.30;;;1.23;;
75280;SDS011;63874;47.230;39.620;2023-01-01T13:42:44;2.25;;;1.17;;
75280;SDS011;63874;47.230;39.620;2023-01-01T13:45:50;2.22;;;0.95;;
75280;SDS011;63874;47.230;39.620;2023-01-01T13:57:00;2.17;;;0.85;;
75280;SDS011;63874;47.230;39.620;2023-01-01T14:05:32;1.67;;;0.88;;
75280;SDS011;63874;47.230;39.620;2023-01-01T14:08:02;1.73;;;0.90;;
75280;SDS011;63874;47.230;39.620;2023-01-01T14:10:29;1.52;;;0.73;;
75280;SDS011;63874;47.230;39.620;2023-01-01T14:15:38;1.38;;;0.65;;
75280;SDS011;63874;47.230;39.620;2023-01-01T14:18:15;1.98;;;0.85;;
75280;SDS011;63874;47.230;39.620;2023-01-01T14:21:01;2.47;;;1.20;;
75280;SDS011;63874;47.230;39.620;2023-01-01T14:23:35;2.63;;;0.98;;
75280;SDS011;63874;47.230;39.620;2023-01-01T14:26:23;1.67;;;0.85;;
75280;SDS011;63874;47.230;39.620;2023-01-01T14:28:54;2.08;;;0.60;;
75280;SDS011;63874;47.230;39.620;2023-01-01T14:31:42;2.13;;;1.13;;
75280;SDS011;63874;47.230;39.620;2023-01-01T14:34:12;1.73;;;1.05;;
75280;SDS011;63874;47.230;39.620;2023-01-01T14:36:48;2.50;;;1.90;;
75280;SDS011;63874;47.230;39.620;2023-01-01T14:39:22;1.77;;;0.82;;
75280;SDS011;63874;47.230;39.620;2023-01-01T14:41:51;1.60;;;0.90;;
75280;SDS011;63874;47.230;39.620;2023-01-01T14:44:38;1.73;;;0.77;;
75280;SDS011;63874;47.230;39.620;2023-01-01T14:47:24;1.55;;;0.55;;
75280;SDS011;63874;47.230;39.620;2023-01-01T14:49:54;1.80;;;0.80;;
75280;SDS011;63874;47.230;39.620;2023-01-01T14:52:49;1.83;;;1.05;;
75280;SDS011;63874;47.230;39.620;2023-01-01T14:55:18;1.75;;;0.60;;
75280;SDS011;63874;47.230;39.620;2023-01-01T14:57:45;1.60;;;1.05;;
75280;SDS011;63874;47.230;39.620;2023-01-01T15:00:20;1.52;;;0.80;;
75280;SDS011;63874;47.230;39.620;2023-01-01T15:03:14;1.45;;;0.60;;
75280;SDS011;63874;47.230;39.620;2023-01-01T15:05:45;1.85;;;1.05;;
75280;SDS011;63874;47.230;39.620;2023-01-01T15:08:22;1.85;;;0.88;;
75280;SDS011;63874;47.230;39.620;2023-01-01T15:10:50;1.52;;;0.93;;
75280;SDS011;63874;47.230;39.620;2023-01-01T15:13:23;1.50;;;0.90;;
75280;SDS011;63874;47.230;39.620;2023-01-01T15:15:52;1.15;;;0.52;;
75280;SDS011;63874;47.230;39.620;2023-01-01T15:23:46;1.38;;;0.43;;
75280;SDS011;63874;47.230;39.620;2023-01-01T15:26:36;1.45;;;0.77;;
75280;SDS011;63874;47.230;39.620;2023-01-01T15:29:09;0.88;;;0.32;;
75280;SDS011;63874;47.230;39.620;2023-01-01T15:31:43;1.45;;;0.63;;
75280;SDS011;63874;47.230;39.620;2023-01-01T15:34:18;1.02;;;0.63;;
75280;SDS011;63874;47.230;39.620;2023-01-01T15:36:50;1.30;;;0.50;;
75280;SDS011;63874;47.230;39.620;2023-01-01T15:39:17;1.55;;;0.93;;
75280;SDS011;63874;47.230;39.620;2023-01-01T15:42:01;1.08;;;0.50;;
75280;SDS011;63874;47.230;39.620;2023-01-01T15:45:18;1.27;;;0.63;;
75280;SDS011;63874;47.230;39.620;2023-01-01T15:50:31;1.23;;;0.50;;
75280;SDS011;63874;47.230;39.620;2023-01-01T15:53:02;1.00;;;0.43;;
75280;SDS011;63874;47.230;39.620;2023-01-01T15:55:34;1.23;;;0.88;;
75280;SDS011;63874;47.230;39.620;2023-01-01T15:58:12;2.05;;;1.23;;
75280;SDS011;63874;47.230;39.620;2023-01-01T16:01:07;1.58;;;0.50;;
75280;SDS011;63874;47.230;39.620;2023-01-01T16:03:38;1.13;;;0.55;;
75280;SDS011;63874;47.230;39.620;2023-01-01T16:06:06;1.30;;;0.80;;
75280;SDS011;63874;47.230;39.620;2023-01-01T16:08:51;1.55;;;0.80;;
75280;SDS011;63874;47.230;39.620;2023-01-01T16:11:17;1.33;;;0.50;;
75280;SDS011;63874;47.230;39.620;2023-01-01T16:13:43;1.20;;;0.73;;
75280;SDS011;63874;47.230;39.620;2023-01-01T16:16:42;0.98;;;0.40;;
75280;SDS011;63874;47.230;39.620;2023-01-01T16:19:04;1.50;;;0.75;;
75280;SDS011;63874;47.230;39.620;2023-01-01T16:21:51;1.48;;;0.80;;
75280;SDS011;63874;47.230;39.620;2023-01-01T16:24:18;0.95;;;0.45;;
75280;SDS011;63874;47.230;39.620;2023-01-01T16:26:44;0.85;;;0.45;;
75280;SDS011;63874;47.230;39.620;2023-01-01T16:29:11;1.13;;;0.57;;
75280;SDS011;63874;47.230;39.620;2023-01-01T16:31:37;2.22;;;1.05;;
75280;SDS011;63874;47.230;39.620;2023-01-01T16:34:04;1.17;;;0.65;;
75280;SDS011;63874;47.230;39.620;2023-01-01T16:36:30;1.48;;;0.63;;
75280;SDS011;63874;47.230;39.620;2023-01-01T16:38:56;1.40;;;0.60;;
75280;SDS011;63874;47.230;39.620;2023-01-01T16:41:23;2.10;;;0.63;;
75280;SDS011;63874;47.230;39.620;2023-01-01T16:43:51;1.90;;;1.02;;
75280;SDS011;63874;47.230;39.620;2023-01-01T16:46:16;0.95;;;0.63;;
75280;SDS011;63874;47.230;39.620;2023-01-01T16:48:42;0.88;;;0.38;;
75280;SDS011;63874;47.230;39.620;2023-01-01T16:53:44;1.30;;;0.60;;
75280;SDS011;63874;47.230;39.620;2023-01-01T16:56:11;1.27;;;0.65;;
75280;SDS011;63874;47.230;39.620;2023-01-01T16:58:38;1.25;;;0.38;;
75280;SDS011;63874;47.230;39.620;2023-01-01T17:01:04;1.25;;;0.55;;
75280;SDS011;63874;47.230;39.620;2023-01-01T17:03:30;1.02;;;0.68;;
75280;SDS011;63874;47.230;39.620;2023-01-01T17:05:56;1.35;;;0.65;;
75280;SDS011;63874;47.230;39.620;2023-01-01T17:08:21;1.40;;;0.55;;
75280;SDS011;63874;47.230;39.620;2023-01-01T17:10:47;1.02;;;0.32;;
75280;SDS011;63874;47.230;39.620;2023-01-01T17:13:35;2.30;;;0.82;;
75280;SDS011;63874;47.230;39.620;2023-01-01T17:16:19;1.08;;;0.60;;
75280;SDS011;63874;47.230;39.620;2023-01-01T17:18:49;1.80;;;0.52;;
75280;SDS011;63874;47.230;39.620;2023-01-01T17:21:15;0.93;;;0.35;;
75280;SDS011;63874;47.230;39.620;2023-01-01T17:24:00;1.27;;;0.65;;
75280;SDS011;63874;47.230;39.620;2023-01-01T17:26:26;2.15;;;0.50;;
75280;SDS011;63874;47.230;39.620;2023-01-01T17:28:52;1.08;;;0.57;;
75280;SDS011;63874;47.230;39.620;2023-01-01T17:31:19;1.42;;;0.75;;
75280;SDS011;63874;47.230;39.620;2023-01-01T17:34:03;1.45;;;0.77;;
75280;SDS011;63874;47.230;39.620;2023-01-01T17:36:29;1.02;;;0.55;;
75280;SDS011;63874;47.230;39.620;2023-01-01T17:38:55;1.60;;;0.82;;
75280;SDS011;63874;47.230;39.620;2023-01-01T17:41:21;1.42;;;0.65;;
75280;SDS011;63874;47.230;39.620;2023-01-01T17:43:48;1.40;;;0.63;;
75280;SDS011;63874;47.230;39.620;2023-01-01T17:46:16;1.45;;;0.52;;
75280;SDS011;63874;47.230;39.620;2023-01-01T17:48:47;1.02;;;0.50;;
75280;SDS011;63874;47.230;39.620;2023-01-01T17:51:14;1.50;;;0.52;;
75280;SDS011;63874;47.230;39.620;2023-01-01T17:53:41;1.38;;;0.52;;
75280;SDS011;63874;47.230;39.620;2023-01-01T17:56:08;1.25;;;0.60;;
75280;SDS011;63874;47.230;39.620;2023-01-01T17:58:53;1.27;;;0.55;;
75280;SDS011;63874;47.230;39.620;2023-01-01T18:03:55;1.38;;;0.82;;
75280;SDS011;63874;47.230;39.620;2023-01-01T18:06:23;1.35;;;0.35;;
75280;SDS011;63874;47.230;39.620;2023-01-01T18:08:59;1.30;;;0.85;;
75280;SDS011;63874;47.230;39.620;2023-01-01T18:11:27;1.50;;;0.73;;
75280;SDS011;63874;47.230;39.620;2023-01-01T18:13:54;1.85;;;0.85;;
75280;SDS011;63874;47.230;39.620;2023-01-01T18:16:25;1.23;;;0.38;;
75280;SDS011;63874;47.230;39.620;2023-01-01T18:18:51;1.40;;;0.60;;
75280;SDS011;63874;47.230;39.620;2023-01-01T18:21:18;1.67;;;0.88;;
75280;SDS011;63874;47.230;39.620;2023-01-01T18:23:47;1.08;;;0.50;;
75280;SDS011;63874;47.230;39.620;2023-01-01T18:26:17;1.35;;;0.75;;
75280;SDS011;63874;47.230;39.620;2023-01-01T18:28:49;1.55;;;0.50;;
75280;SDS011;63874;47.230;39.620;2023-01-01T18:31:25;1.27;;;0.73;;
75280;SDS011;63874;47.230;39.620;2023-01-01T18:33:52;1.33;;;0.40;;
75280;SDS011;63874;47.230;39.620;2023-01-01T18:36:19;1.10;;;0.60;;
75280;SDS011;63874;47.230;39.620;2023-01-01T18:38:58;1.02;;;0.47;;
75280;SDS011;63874;47.230;39.620;2023-01-01T18:41:38;0.90;;;0.35;;
75280;SDS011;63874;47.230;39.620;2023-01-01T18:44:13;1.05;;;0.47;;
75280;SDS011;63874;47.230;39.620;2023-01-01T18:47:30;1.33;;;0.65;;
75280;SDS011;63874;47.230;39.620;2023-01-01T18:49:31;1.52;;;0.82;;
75280;SDS011;63874;47.230;39.620;2023-01-01T18:54:39;1.25;;;0.75;;
75280;SDS011;63874;47.230;39.620;2023-01-01T18:57:10;1.00;;;0.68;;
75280;SDS011;63874;47.230;39.620;2023-01-01T18:59:42;0.85;;;0.45;;
75280;SDS011;63874;47.230;39.620;2023-01-01T19:10:20;1.13;;;0.47;;
75280;SDS011;63874;47.230;39.620;2023-01-01T19:13:27;1.25;;;0.68;;
75280;SDS011;63874;47.230;39.620;2023-01-01T19:15:59;0.95;;;0.47;;
75280;SDS011;63874;47.230;39.620;2023-01-01T19:18:50;1.52;;;0.50;;
75280;SDS011;63874;47.230;39.620;2023-01-01T19:21:23;1.35;;;0.47;;
75280;SDS011;63874;47.230;39.620;2023-01-01T19:26:37;1.27;;;0.40;;
75280;SDS011;63874;47.230;39.620;2023-01-01T19:29:23;1.33;;;0.68;;
75280;SDS011;63874;47.230;39.620;2023-01-01T19:31:53;1.80;;;0.75;;
75280;SDS011;63874;47.230;39.620;2023-01-01T19:34:20;1.30;;;0.65;;
75280;SDS011;63874;47.230;39.620;2023-01-01T19:36:47;1.45;;;0.50;;
75280;SDS011;63874;47.230;39.620;2023-01-01T19:39:13;1.85;;;0.90;;
75280;SDS011;63874;47.230;39.620;2023-01-01T19:41:40;2.30;;;0.85;;
75280;SDS011;63874;47.230;39.620;2023-01-01T19:44:06;1.25;;;0.65;;
75280;SDS011;63874;47.230;39.620;2023-01-01T19:46:32;1.30;;;0.40;;
75280;SDS011;63874;47.230;39.620;2023-01-01T19:48:58;0.63;;;0.25;;
75280;SDS011;63874;47.230;39.620;2023-01-01T19:51:24;1.40;;;0.65;;
75280;SDS011;63874;47.230;39.620;2023-01-01T19:53:50;1.95;;;1.75;;
75280;SDS011;63874;47.230;39.620;2023-01-01T19:56:17;1.45;;;0.63;;
75280;SDS011;63874;47.230;39.620;2023-01-01T19:58:44;1.40;;;0.70;;
75280;SDS011;63874;47.230;39.620;2023-01-01T20:01:10;1.20;;;0.65;;
75280;SDS011;63874;47.230;39.620;2023-01-01T20:03:37;1.60;;;0.77;;